Time;durP1;ratioP1;P1;durP2;ratioP2;P2;SDS_P1;SDS_P2;PMS_P1;PMS_P2;Temp;Humidity;BMP_temperature;BMP_pressure;BME280_temperature;BME280_humidity;BME280_pressure;Samples;Min_cycle;Max_cycle;Signal;HPM_P1;HPM_P2
2023/07/05 00:01:40;;;;;;;7.63;3.35;;;15.50;99.90;;;;;;5095598;28;20040;-74
2023/07/05 00:04:06;;;;;;;6.60;3.15;;;15.60;99.90;;;;;;5079483;28;20036;-72
2023/07/05 00:06:32;;;;;;;6.00;3.30;;;15.60;99.90;;;;;;5090162;28;20468;-74
2023/07/05 00:08:57;;;;;;;4.95;3.35;;;15.60;99.90;;;;;;5075945;28;20052;-74
2023/07/05 00:11:23;;;;;;;5.07;3.00;;;15.60;99.90;;;;;;5074265;28;20041;-72
2023/07/05 00:13:49;;;;;;;5.40;3.15;;;15.60;99.90;;;;;;5093147;28;20115;-73
2023/07/05 00:16:15;;;;;;;6.05;3.53;;;15.60;99.90;;;;;;5077990;28;20035;-74
2023/07/05 00:18:41;;;;;;;5.13;3.35;;;15.50;99.90;;;;;;5076894;28;20037;-74
2023/07/05 00:21:09;;;;;;;4.57;2.95;;;15.60;99.90;;;;;;5091828;28;20119;-74
2023/07/05 00:23:36;;;;;;;5.03;3.80;;;15.50;99.90;;;;;;5093469;28;20039;-73
2023/07/05 00:26:03;;;;;;;5.70;3.55;;;15.50;99.90;;;;;;5078054;28;20051;-74
2023/07/05 00:28:28;;;;;;;7.93;3.58;;;15.50;99.90;;;;;;5087667;28;20041;-74
2023/07/05 00:30:54;;;;;;;8.02;4.10;;;15.60;99.90;;;;;;5080086;28;20036;-74
2023/07/05 00:33:20;;;;;;;5.35;3.50;;;15.50;99.90;;;;;;5092211;28;20133;-74
2023/07/05 00:35:53;;;;;;;5.25;3.28;;;15.50;99.90;;;;;;5093281;28;20028;-73
2023/07/05 00:38:19;;;;;;;7.03;3.30;;;15.60;99.90;;;;;;5073418;28;20055;-73
2023/07/05 00:40:45;;;;;;;5.68;3.42;;;15.50;99.90;;;;;;5079981;28;20093;-73
2023/07/05 00:43:13;;;;;;;7.63;3.50;;;15.60;99.90;;;;;;5081343;28;20083;-73
2023/07/05 00:45:59;;;;;;;6.63;3.80;;;15.50;99.90;;;;;;5073124;28;20044;-73
2023/07/05 00:48:43;;;;;;;6.45;3.70;;;15.60;99.90;;;;;;5080863;28;20051;-73
2023/07/05 00:51:19;;;;;;;4.70;3.25;;;15.50;99.90;;;;;;5084560;28;20032;-74
2023/07/05 00:53:45;;;;;;;5.22;3.40;;;15.60;99.90;;;;;;5093112;28;20048;-74
2023/07/05 00:56:21;;;;;;;6.57;3.70;;;15.60;99.90;;;;;;5086200;28;20055;-73
2023/07/05 00:58:47;;;;;;;;;;;15.60;99.90;;;;;;5080306;28;20039;-73
2023/07/05 01:01:13;;;;;;;6.68;3.40;;;15.60;99.90;;;;;;5092816;28;20007;-74
2023/07/05 01:03:40;;;;;;;6.30;3.42;;;15.60;99.90;;;;;;5092150;28;20127;-73
2023/07/05 01:06:07;;;;;;;6.28;3.72;;;15.60;99.90;;;;;;5089435;28;20094;-73
2023/07/05 01:08:33;;;;;;;6.70;3.90;;;15.60;99.90;;;;;;5072875;28;20415;-73
2023/07/05 01:11:09;;;;;;;5.18;3.58;;;15.60;99.90;;;;;;5071724;28;20041;-73
2023/07/05 01:13:38;;;;;;;;;;;15.60;99.90;;;;;;5082577;28;20040;-73
2023/07/05 01:16:32;;;;;;;5.55;3.20;;;15.50;99.90;;;;;;5092118;28;20260;-74
2023/07/05 01:19:05;;;;;;;5.80;3.60;;;15.50;99.90;;;;;;5092160;28;20048;-74
2023/07/05 01:21:47;;;;;;;6.47;3.70;;;15.60;99.90;;;;;;5078248;28;20464;-74
2023/07/05 01:24:48;;;;;;;6.05;3.50;;;15.60;99.90;;;;;;5087405;28;20032;-75
2023/07/05 01:27:42;;;;;;;7.63;3.63;;;15.60;99.90;;;;;;5087917;28;20048;-75
2023/07/05 01:30:26;;;;;;;8.40;4.07;;;15.60;99.90;;;;;;5082977;28;20040;-75
2023/07/05 01:33:10;;;;;;;7.50;4.03;;;15.60;99.90;;;;;;5085284;28;20416;-73
2023/07/05 01:35:44;;;;;;;6.38;3.63;;;15.60;99.90;;;;;;5078455;28;20445;-74
2023/07/05 01:38:10;;;;;;;5.18;3.60;;;15.50;99.90;;;;;;5079034;28;20468;-73
2023/07/05 01:40:38;;;;;;;7.50;4.00;;;15.40;99.90;;;;;;5082782;28;20044;-75
2023/07/05 01:43:10;;;;;;;9.07;4.30;;;15.40;99.90;;;;;;5095135;28;20487;-75
2023/07/05 01:46:06;;;;;;;8.18;4.10;;;15.40;99.90;;;;;;5093321;28;20044;-73
2023/07/05 01:48:56;;;;;;;7.30;4.50;;;15.30;99.90;;;;;;5063773;28;20052;-75
2023/07/05 01:51:48;;;;;;;10.52;4.78;;;15.20;99.90;;;;;;5089129;28;20048;-74
2023/07/05 01:54:16;;;;;;;8.02;4.65;;;15.20;99.90;;;;;;5092006;28;20137;-72
2023/07/05 01:56:53;;;;;;;6.68;4.22;;;15.10;99.90;;;;;;5078431;28;20072;-72
2023/07/05 01:59:23;;;;;;;6.13;4.50;;;15.10;99.90;;;;;;5076464;28;20048;-74
2023/07/05 02:01:53;;;;;;;8.30;4.38;;;15.10;99.90;;;;;;5078040;28;20122;-73
2023/07/05 02:04:21;;;;;;;7.35;4.28;;;15.00;99.90;;;;;;5079218;28;20054;-73
2023/07/05 02:06:47;;;;;;;5.30;4.38;;;15.00;99.90;;;;;;5095541;28;20085;-74
2023/07/05 02:09:13;;;;;;;8.40;5.10;;;15.00;99.90;;;;;;5095298;28;20040;-74
2023/07/05 02:11:39;;;;;;;6.22;4.45;;;15.00;99.90;;;;;;5090856;28;20072;-73
2023/07/05 02:14:04;;;;;;;8.02;4.70;;;14.90;99.90;;;;;;5075651;28;20079;-73
2023/07/05 02:16:30;;;;;;;5.45;4.43;;;14.90;99.90;;;;;;5079289;28;20040;-73
2023/07/05 02:18:56;;;;;;;7.82;4.90;;;14.90;99.90;;;;;;5076669;28;20097;-72
2023/07/05 02:21:22;;;;;;;9.25;5.07;;;14.90;99.90;;;;;;5075864;28;20461;-73
2023/07/05 02:23:47;;;;;;;10.00;4.80;;;14.90;99.90;;;;;;5090455;28;20537;-73
2023/07/05 02:26:13;;;;;;;7.05;4.65;;;14.90;99.90;;;;;;5095316;28;20043;-74
2023/07/05 02:28:39;;;;;;;8.02;5.00;;;14.90;99.90;;;;;;5094886;28;20044;-73
2023/07/05 02:31:06;;;;;;;6.68;4.50;;;14.80;99.90;;;;;;5095688;28;20059;-72
2023/07/05 02:33:34;;;;;;;8.65;5.00;;;14.80;99.90;;;;;;5095822;28;20425;-72
2023/07/05 02:36:07;;;;;;;7.28;5.20;;;14.80;99.90;;;;;;5087870;28;20392;-73
2023/07/05 02:38:33;;;;;;;8.27;4.95;;;14.80;99.90;;;;;;5075466;28;20039;-73
2023/07/05 02:40:58;;;;;;;9.68;5.32;;;14.80;99.90;;;;;;5084426;28;20035;-73
2023/07/05 02:43:24;;;;;;;7.35;4.60;;;14.80;99.90;;;;;;5095416;28;20113;-72
2023/07/05 02:45:50;;;;;;;6.80;4.55;;;14.80;99.90;;;;;;5093143;28;20047;-73
2023/07/05 02:48:15;;;;;;;6.85;4.50;;;14.80;99.90;;;;;;5087349;28;20062;-72
2023/07/05 02:50:41;;;;;;;8.15;5.30;;;14.70;99.90;;;;;;5087135;28;20085;-73
2023/07/05 02:53:07;;;;;;;8.50;4.82;;;14.70;99.90;;;;;;5078557;28;20040;-72
2023/07/05 02:55:32;;;;;;;8.77;5.05;;;14.70;99.90;;;;;;5083234;28;20120;-74
2023/07/05 02:57:58;;;;;;;7.95;5.45;;;14.70;99.90;;;;;;5085417;28;20376;-73
2023/07/05 03:00:25;;;;;;;9.68;5.30;;;14.70;99.90;;;;;;5094961;28;20036;-74
2023/07/05 03:02:50;;;;;;;11.23;5.43;;;14.70;99.90;;;;;;5084629;28;20063;-74
2023/07/05 03:05:16;;;;;;;9.05;5.40;;;14.70;99.90;;;;;;5075151;28;20415;-72
2023/07/05 03:07:42;;;;;;;7.80;5.00;;;14.70;99.90;;;;;;5082761;28;20406;-73
2023/07/05 03:10:08;;;;;;;8.65;5.28;;;14.70;99.90;;;;;;5094860;28;20028;-72
2023/07/05 03:12:33;;;;;;;8.18;5.47;;;14.70;99.90;;;;;;5077845;28;20044;-73
2023/07/05 03:14:59;;;;;;;7.82;4.90;;;14.70;99.90;;;;;;5074549;28;20081;-74
2023/07/05 03:17:25;;;;;;;7.88;5.47;;;14.80;99.90;;;;;;5075183;28;20037;-72
2023/07/05 03:19:54;;;;;;;7.45;4.82;;;14.80;99.90;;;;;;5074820;28;20531;-73
2023/07/05 03:22:19;;;;;;;7.70;5.35;;;14.80;99.90;;;;;;5088990;28;20377;-73
2023/07/05 03:24:45;;;;;;;7.05;5.00;;;14.80;99.90;;;;;;5094442;28;20031;-73
2023/07/05 03:27:11;;;;;;;8.38;5.32;;;14.80;99.90;;;;;;5082240;28;20044;-74
2023/07/05 03:29:36;;;;;;;11.00;5.72;;;14.80;99.90;;;;;;5076446;28;20118;-74
2023/07/05 03:32:02;;;;;;;8.73;5.65;;;14.80;99.90;;;;;;5077069;28;20062;-73
2023/07/05 03:34:28;;;;;;;8.68;5.72;;;14.80;99.90;;;;;;5073092;28;20036;-74
2023/07/05 03:36:54;;;;;;;10.25;5.05;;;14.80;99.90;;;;;;5074208;28;20040;-73
2023/07/05 03:39:19;;;;;;;8.20;5.25;;;14.80;99.90;;;;;;5074289;28;20040;-74
2023/07/05 03:41:45;;;;;;;8.32;5.68;;;14.80;99.90;;;;;;5089765;28;20126;-75
2023/07/05 03:44:11;;;;;;;7.65;5.10;;;14.80;99.90;;;;;;5087466;28;20044;-73
2023/07/05 03:46:36;;;;;;;8.10;5.47;;;14.80;99.90;;;;;;5075041;28;20037;-75
2023/07/05 03:49:02;;;;;;;9.15;5.53;;;14.80;99.90;;;;;;5089828;28;20136;-76
2023/07/05 03:51:28;;;;;;;8.48;4.93;;;14.80;99.90;;;;;;5073803;28;20036;-75
2023/07/05 03:53:55;;;;;;;6.82;4.60;;;14.90;99.90;;;;;;5072193;28;20044;-73
2023/07/05 03:56:22;;;;;;;6.70;3.97;;;14.90;99.90;;;;;;5080227;28;20432;-73
2023/07/05 03:58:48;;;;;;;8.63;4.90;;;15.00;99.90;;;;;;5073654;28;20377;-72
2023/07/05 04:01:23;;;;;;;6.43;4.30;;;15.00;99.90;;;;;;5072563;28;20051;-72
2023/07/05 04:03:53;;;;;;;5.93;4.63;;;15.10;99.90;;;;;;5086542;28;20040;-72
2023/07/05 04:06:20;;;;;;;7.38;4.50;;;15.10;99.90;;;;;;5093878;28;20048;-72
2023/07/05 04:08:46;;;;;;;9.25;4.53;;;15.20;99.90;;;;;;5093702;28;20044;-69
2023/07/05 04:11:12;;;;;;;8.65;4.75;;;15.20;99.90;;;;;;5081017;28;20044;-72
2023/07/05 04:13:38;;;;;;;8.00;4.60;;;15.30;99.90;;;;;;5073620;28;20369;-73
2023/07/05 04:16:12;;;;;;;6.47;4.38;;;15.40;99.90;;;;;;5073122;28;20050;-73
2023/07/05 04:18:40;;;;;;;6.55;5.18;;;15.40;99.90;;;;;;5073267;28;20036;-76
2023/07/05 04:21:06;;;;;;;6.68;4.95;;;15.40;99.90;;;;;;5073121;28;20384;-74
2023/07/05 04:23:33;;;;;;;8.15;5.25;;;15.50;99.90;;;;;;5088597;28;20040;-74
2023/07/05 04:26:06;;;;;;;6.15;4.72;;;15.60;99.90;;;;;;5070327;28;20087;-74
2023/07/05 04:28:33;;;;;;;5.65;4.30;;;15.60;99.90;;;;;;5086891;28;20040;-74
2023/07/05 04:30:59;;;;;;;5.90;4.35;;;15.70;99.90;;;;;;5073146;28;20052;-76
2023/07/05 04:33:26;;;;;;;5.82;4.35;;;15.70;99.90;;;;;;5052364;28;20139;-75
2023/07/05 04:35:56;;;;;;;5.38;4.35;;;15.70;99.90;;;;;;5092550;28;20044;-73
2023/07/05 04:38:22;;;;;;;5.55;4.22;;;15.70;99.90;;;;;;5072912;28;20093;-75
2023/07/05 04:40:48;;;;;;;5.40;4.05;;;15.70;99.90;;;;;;5072661;28;20036;-74
2023/07/05 04:43:13;;;;;;;5.90;4.07;;;15.70;99.90;;;;;;5075151;28;20071;-74
2023/07/05 04:45:39;;;;;;;6.00;3.72;;;15.70;99.90;;;;;;5092293;28;20075;-76
2023/07/05 04:48:05;;;;;;;5.25;3.50;;;15.80;99.90;;;;;;5093058;28;20047;-76
2023/07/05 04:50:31;;;;;;;4.90;3.25;;;15.70;99.90;;;;;;5093021;28;20044;-73
2023/07/05 04:52:57;;;;;;;5.28;3.72;;;15.70;99.90;;;;;;5095157;28;20118;-72
2023/07/05 04:55:23;;;;;;;6.03;4.00;;;15.70;99.90;;;;;;5091258;28;20048;-74
2023/07/05 04:57:49;;;;;;;5.57;3.47;;;15.80;99.90;;;;;;5074697;28;20074;-75
2023/07/05 05:00:16;;;;;;;4.82;3.03;;;15.70;99.90;;;;;;5089927;28;20119;-74
2023/07/05 05:02:42;;;;;;;4.35;2.90;;;15.70;99.90;;;;;;5092730;28;20556;-73
2023/07/05 05:05:08;;;;;;;3.08;2.47;;;15.70;99.90;;;;;;5077956;28;20045;-75
2023/07/05 05:07:34;;;;;;;4.35;2.42;;;15.50;99.90;;;;;;5072805;28;20040;-74
2023/07/05 05:10:01;;;;;;;4.25;2.78;;;15.30;99.90;;;;;;5082313;28;20040;-72
2023/07/05 05:12:27;;;;;;;4.63;2.83;;;15.00;99.90;;;;;;5072253;28;20369;-74
2023/07/05 05:14:52;;;;;;;4.28;3.10;;;14.80;99.90;;;;;;5082448;28;20044;-73
2023/07/05 05:17:18;;;;;;;3.80;3.33;;;14.70;99.90;;;;;;5085157;28;20043;-75
2023/07/05 05:19:44;;;;;;;3.42;2.70;;;14.50;99.90;;;;;;5080646;28;20337;-75
2023/07/05 05:22:12;;;;;;;4.78;3.03;;;14.40;99.90;;;;;;5092889;28;20036;-74
2023/07/05 05:24:38;;;;;;;3.63;2.97;;;14.30;99.90;;;;;;5093043;28;20036;-75
2023/07/05 05:27:04;;;;;;;3.75;3.00;;;14.20;99.90;;;;;;5092465;28;20109;-72
2023/07/05 05:29:30;;;;;;;4.70;3.25;;;14.20;99.90;;;;;;5092957;28;20036;-73
2023/07/05 05:31:57;;;;;;;4.50;3.05;;;14.10;99.90;;;;;;5092274;28;20052;-74
2023/07/05 05:34:26;;;;;;;3.90;2.80;;;14.20;99.90;;;;;;5093032;28;20044;-73
2023/07/05 05:36:52;;;;;;;3.65;2.85;;;14.20;99.90;;;;;;5084354;28;20033;-72
2023/07/05 05:39:19;;;;;;;3.97;2.85;;;14.20;99.90;;;;;;5072276;28;20518;-75
2023/07/05 05:41:44;;;;;;;4.50;2.85;;;14.20;99.90;;;;;;5071201;28;20323;-74
2023/07/05 05:44:10;;;;;;;3.75;2.42;;;14.30;99.90;;;;;;5072525;28;20120;-73
2023/07/05 05:46:36;;;;;;;4.45;2.33;;;14.50;99.90;;;;;;5084828;28;20036;-75
2023/07/05 05:49:02;;;;;;;3.83;2.60;;;14.60;99.90;;;;;;5092726;28;20040;-74
2023/07/05 05:51:28;;;;;;;4.03;2.55;;;14.60;99.90;;;;;;5092717;28;20067;-74
2023/07/05 05:53:54;;;;;;;3.92;2.55;;;14.60;99.90;;;;;;5092294;28;20039;-72
2023/07/05 05:56:19;;;;;;;3.40;2.30;;;14.60;99.90;;;;;;5084914;28;20511;-74
2023/07/05 05:58:46;;;;;;;4.97;2.35;;;14.60;99.90;;;;;;5072603;28;20040;-75
2023/07/05 06:01:12;;;;;;;3.70;2.40;;;14.60;99.90;;;;;;5073724;28;20480;-73
2023/07/05 06:03:38;;;;;;;3.78;2.20;;;14.60;99.90;;;;;;5072199;28;20037;-75
2023/07/05 06:06:04;;;;;;;3.40;2.33;;;14.60;99.90;;;;;;5088496;28;20388;-73
2023/07/05 06:08:32;;;;;;;4.63;2.63;;;14.60;99.90;;;;;;5072311;28;20051;-74
2023/07/05 06:11:00;;;;;;;3.97;2.38;;;14.60;99.90;;;;;;5077696;28;20044;-74
2023/07/05 06:13:27;;;;;;;3.78;2.03;;;14.60;99.90;;;;;;5091923;28;20045;-73
2023/07/05 06:15:57;;;;;;;5.28;2.47;;;14.70;99.90;;;;;;5092964;28;20375;-64
2023/07/05 06:18:23;;;;;;;3.97;2.45;;;14.60;99.90;;;;;;5076576;28;20040;-64
2023/07/05 06:20:49;;;;;;;3.80;2.17;;;14.80;99.90;;;;;;5092815;28;20036;-63
2023/07/05 06:23:15;;;;;;;4.35;2.55;;;14.70;99.90;;;;;;5094857;28;20036;-63
2023/07/05 06:25:44;;;;;;;3.20;2.13;;;14.70;99.90;;;;;;5095816;28;20036;-63
2023/07/05 06:28:09;;;;;;;5.28;2.28;;;14.70;99.90;;;;;;5095016;28;20047;-63
2023/07/05 06:30:35;;;;;;;4.22;2.70;;;14.60;99.90;;;;;;5095532;28;20044;-63
2023/07/05 06:33:01;;;;;;;3.53;2.33;;;14.70;99.90;;;;;;5096212;28;20094;-63
2023/07/05 06:35:27;;;;;;;4.18;2.38;;;14.90;99.90;;;;;;5095735;28;20051;-63
2023/07/05 06:37:52;;;;;;;4.90;2.60;;;15.10;99.90;;;;;;5078445;28;20124;-63
2023/07/05 06:40:18;;;;;;;4.68;2.80;;;15.30;99.90;;;;;;5075622;28;20032;-64
2023/07/05 06:42:44;;;;;;;4.30;2.58;;;15.40;99.90;;;;;;5083462;28;20127;-64
2023/07/05 06:45:09;;;;;;;3.55;2.50;;;15.40;99.90;;;;;;5096025;28;20473;-64
2023/07/05 06:47:37;;;;;;;3.92;2.40;;;15.30;99.90;;;;;;5095488;28;20388;-64
2023/07/05 06:50:03;;;;;;;4.07;2.33;;;15.40;99.90;;;;;;5095354;28;20059;-64
2023/07/05 06:52:29;;;;;;;4.63;2.28;;;15.50;99.90;;;;;;5094277;28;20074;-65
2023/07/05 06:54:54;;;;;;;3.20;2.17;;;15.50;99.90;;;;;;5095819;28;20059;-64
2023/07/05 06:57:20;;;;;;;3.90;2.20;;;15.40;99.90;;;;;;5095328;28;20481;-63
2023/07/05 06:59:46;;;;;;;4.40;2.50;;;15.40;99.90;;;;;;5095395;28;20035;-63
2023/07/05 07:02:12;;;;;;;3.42;1.98;;;15.50;99.90;;;;;;5090132;28;20036;-64
2023/07/05 07:04:37;;;;;;;4.38;2.28;;;15.50;99.90;;;;;;5074858;28;20358;-64
2023/07/05 07:07:03;;;;;;;4.50;2.30;;;15.50;99.90;;;;;;5073493;28;20051;-64
2023/07/05 07:09:29;;;;;;;3.78;2.10;;;15.40;99.90;;;;;;5074860;28;20052;-64
2023/07/05 07:11:55;;;;;;;3.65;2.17;;;15.40;99.90;;;;;;5074243;28;20043;-64
2023/07/05 07:14:20;;;;;;;2.85;1.92;;;15.30;99.90;;;;;;5074805;28;20068;-63
2023/07/05 07:16:47;;;;;;;3.20;1.90;;;15.10;99.90;;;;;;5069692;28;20036;-71
2023/07/05 07:19:12;;;;;;;5.10;2.60;;;15.00;99.90;;;;;;5074045;28;20472;-77
2023/07/05 07:21:38;;;;;;;3.22;1.77;;;14.90;99.90;;;;;;5086403;28;20066;-75
2023/07/05 07:24:05;;;;;;;4.13;2.60;;;14.90;99.90;;;;;;5078422;28;20051;-72
2023/07/05 07:26:31;;;;;;;3.67;2.05;;;15.00;99.90;;;;;;5073770;28;20492;-71
2023/07/05 07:28:56;;;;;;;3.85;1.90;;;15.00;99.90;;;;;;5059773;28;20087;-71
2023/07/05 07:31:28;;;;;;;3.53;1.90;;;15.00;99.90;;;;;;5075968;28;20038;-71
2023/07/05 07:33:54;;;;;;;4.53;2.20;;;15.10;99.90;;;;;;5072443;28;20106;-71
2023/07/05 07:36:29;;;;;;;3.53;1.80;;;15.10;99.90;;;;;;5066177;28;20040;-77
2023/07/05 07:38:55;;;;;;;4.32;1.98;;;15.30;99.90;;;;;;5066394;28;20044;-76
2023/07/05 07:41:27;;;;;;;3.42;2.08;;;15.40;99.90;;;;;;5074214;28;20106;-78
2023/07/05 07:43:55;;;;;;;3.40;2.20;;;15.30;99.90;;;;;;5072454;28;20041;-76
2023/07/05 07:46:23;;;;;;;3.92;2.05;;;15.30;99.90;;;;;;5072182;28;20059;-76
2023/07/05 07:48:51;;;;;;;3.38;2.35;;;15.20;99.90;;;;;;5072430;28;20066;-77
2023/07/05 07:51:18;;;;;;;3.88;1.85;;;15.20;99.90;;;;;;5073533;28;20040;-75
2023/07/05 07:53:44;;;;;;;3.63;1.90;;;15.20;99.90;;;;;;5073368;28;20045;-73
2023/07/05 07:56:12;;;;;;;3.00;1.83;;;15.20;99.90;;;;;;5073564;28;20064;-76
2023/07/05 07:58:38;;;;;;;3.15;1.80;;;15.00;99.90;;;;;;5073195;28;20067;-77
2023/07/05 08:01:16;;;;;;;2.92;1.63;;;14.50;99.90;;;;;;5073042;28;20058;-70
2023/07/05 08:03:42;;;;;;;2.25;1.33;;;14.00;99.90;;;;;;5073535;28;20050;-70
2023/07/05 08:06:08;;;;;;;2.90;1.80;;;13.80;99.90;;;;;;5072241;28;20123;-70
2023/07/05 08:08:36;;;;;;;3.13;1.80;;;13.70;99.90;;;;;;5073024;28;20174;-70
2023/07/05 08:11:03;;;;;;;3.13;1.90;;;13.80;99.90;;;;;;5073160;28;20074;-72
2023/07/05 08:13:30;;;;;;;2.30;1.50;;;14.00;99.90;;;;;;5062227;28;20045;-70
2023/07/05 08:15:56;;;;;;;2.85;1.20;;;14.00;99.90;;;;;;5073151;28;20087;-75
2023/07/05 08:18:22;;;;;;;2.88;1.20;;;13.80;99.90;;;;;;5072970;28;20464;-74
2023/07/05 08:20:47;;;;;;;1.70;1.00;;;13.60;99.90;;;;;;5073119;28;20039;-74
2023/07/05 08:23:13;;;;;;;1.60;1.02;;;13.50;99.90;;;;;;5072772;28;20044;-75
2023/07/05 08:25:39;;;;;;;2.58;0.98;;;13.50;99.90;;;;;;5072112;28;20036;-73
2023/07/05 08:28:05;;;;;;;2.38;1.08;;;13.40;99.90;;;;;;5073308;28;20093;-73
2023/07/05 08:30:33;;;;;;;3.00;1.20;;;13.30;99.90;;;;;;5072511;28;20048;-71
2023/07/05 08:32:59;;;;;;;2.33;0.90;;;13.00;99.90;;;;;;5072569;28;20366;-73
2023/07/05 08:35:25;;;;;;;1.60;0.98;;;12.80;99.90;;;;;;5072837;28;20068;-71
2023/07/05 08:37:50;;;;;;;3.25;0.88;;;12.80;99.90;;;;;;5067824;28;20044;-69
2023/07/05 08:40:17;;;;;;;1.45;0.77;;;12.70;99.90;;;;;;5071608;28;20048;-72
2023/07/05 08:42:56;;;;;;;2.42;0.98;;;12.70;99.90;;;;;;5070976;28;20097;-70
2023/07/05 08:45:24;;;;;;;1.70;1.00;;;12.60;99.90;;;;;;5070638;28;20447;-74
2023/07/05 08:47:54;;;;;;;1.73;1.00;;;12.70;99.90;;;;;;5072362;28;20048;-75
2023/07/05 08:50:29;;;;;;;1.73;0.98;;;12.80;99.90;;;;;;5071283;28;20044;-73
2023/07/05 08:53:06;;;;;;;2.17;0.73;;;12.80;99.90;;;;;;5072245;28;20059;-70
2023/07/05 08:55:46;;;;;;;2.20;1.02;;;12.90;99.90;;;;;;5072454;28;20101;-70
2023/07/05 08:58:19;;;;;;;2.10;0.80;;;12.90;99.90;;;;;;5071047;28;20036;-75
2023/07/05 09:01:05;;;;;;;2.47;1.02;;;12.90;99.90;;;;;;5051264;28;20036;-70
2023/07/05 09:03:32;;;;;;;1.55;0.75;;;12.90;99.90;;;;;;5071439;28;20094;-71
2023/07/05 09:06:19;;;;;;;2.75;1.10;;;12.90;99.90;;;;;;5072380;28;20077;-72
2023/07/05 09:08:55;;;;;;;3.67;1.15;;;12.90;99.90;;;;;;5071300;28;20032;-69
2023/07/05 09:11:33;;;;;;;;;;;12.90;99.90;;;;;;5072938;28;20045;-68
2023/07/05 09:14:24;;;;;;;3.50;1.10;;;12.90;99.90;;;;;;5055135;28;19916;-72
2023/07/05 09:17:01;;;;;;;2.30;1.20;;;12.80;99.90;;;;;;5072080;28;20048;-73
2023/07/05 09:19:46;;;;;;;2.38;1.30;;;12.60;99.90;;;;;;5071943;28;20040;-68
2023/07/05 09:22:19;;;;;;;2.30;1.40;;;12.50;99.90;;;;;;5072150;28;20036;-72
2023/07/05 09:24:45;;;;;;;3.25;1.48;;;12.20;99.90;;;;;;5071908;28;20424;-72
2023/07/05 09:27:25;;;;;;;2.45;1.40;;;12.30;99.90;;;;;;5072009;28;20044;-73
2023/07/05 09:30:24;;;;;;;2.30;1.50;;;12.20;99.90;;;;;;5071076;28;20052;-74
2023/07/05 09:33:15;;;;;;;2.72;1.73;;;12.10;99.90;;;;;;5048312;28;20049;-73
2023/07/05 09:35:44;;;;;;;2.08;1.60;;;12.00;99.90;;;;;;5072323;28;20468;-70
2023/07/05 09:38:30;;;;;;;2.38;1.65;;;12.00;99.90;;;;;;5070469;28;20052;-72
2023/07/05 09:41:04;;;;;;;3.58;1.90;;;12.10;99.90;;;;;;5070986;28;20051;-73
2023/07/05 09:43:36;;;;;;;4.75;1.90;;;12.10;99.90;;;;;;5070374;28;20119;-72
2023/07/05 09:46:06;;;;;;;2.80;1.75;;;12.10;99.90;;;;;;5071946;28;20036;-73
2023/07/05 09:48:41;;;;;;;3.67;1.90;;;12.10;99.90;;;;;;5074453;28;20037;-73
2023/07/05 09:51:06;;;;;;;4.05;2.10;;;12.10;99.90;;;;;;5078055;28;20048;-71
2023/07/05 09:53:51;;;;;;;4.22;1.85;;;12.20;99.90;;;;;;5076532;28;20036;-72
2023/07/05 09:56:28;;;;;;;3.58;2.00;;;12.30;99.90;;;;;;5075928;28;20040;-72
2023/07/05 09:59:19;;;;;;;4.40;1.95;;;12.40;99.90;;;;;;5074532;28;20036;-74
2023/07/05 10:01:49;;;;;;;3.90;1.75;;;12.50;99.90;;;;;;5067842;28;20385;-73
2023/07/05 10:04:16;;;;;;;3.30;1.90;;;12.40;99.90;;;;;;5075037;28;20040;-72
2023/07/05 10:06:45;;;;;;;3.70;1.88;;;12.50;99.90;;;;;;5074297;28;20047;-73
2023/07/05 10:09:19;;;;;;;3.42;1.73;;;12.50;99.90;;;;;;5074552;28;20059;-71
2023/07/05 10:11:59;;;;;;;4.00;1.60;;;12.60;99.90;;;;;;5074533;28;20422;-73
2023/07/05 10:14:33;;;;;;;3.95;1.90;;;12.50;99.90;;;;;;5057475;28;20465;-70
2023/07/05 10:17:05;;;;;;;3.47;1.70;;;12.50;99.90;;;;;;5075325;28;20488;-73
2023/07/05 10:19:49;;;;;;;4.07;2.00;;;12.50;99.90;;;;;;5075517;28;20045;-73
2023/07/05 10:22:31;;;;;;;4.63;2.10;;;12.50;99.90;;;;;;5071556;28;20040;-73
2023/07/05 10:25:05;;;;;;;8.15;2.20;;;12.50;99.90;;;;;;5075255;28;20143;-73
2023/07/05 10:27:36;;;;;;;3.55;1.60;;;12.50;99.90;;;;;;5075375;28;20397;-74
2023/07/05 10:30:15;;;;;;;4.60;1.60;;;12.40;99.90;;;;;;5070710;28;20373;-71
2023/07/05 10:32:49;;;;;;;3.10;1.80;;;12.40;99.90;;;;;;5065030;28;20061;-68
2023/07/05 10:35:27;;;;;;;4.55;1.65;;;12.40;99.90;;;;;;5088018;28;20125;-79
2023/07/05 10:37:54;;;;;;;3.88;2.15;;;12.40;99.90;;;;;;5063280;28;20045;-70
2023/07/05 10:40:22;;;;;;;3.35;2.00;;;12.40;99.90;;;;;;5061234;28;20078;-70
2023/07/05 10:42:52;;;;;;;3.70;1.95;;;12.40;99.90;;;;;;5074790;28;20125;-70
2023/07/05 10:45:20;;;;;;;2.90;1.73;;;12.50;99.90;;;;;;5074383;28;20043;-71
2023/07/05 10:47:48;;;;;;;5.38;2.17;;;12.40;99.90;;;;;;5075158;28;20051;-70
2023/07/05 10:50:16;;;;;;;3.88;2.00;;;12.50;99.90;;;;;;5074984;28;20044;-70
2023/07/05 10:52:53;;;;;;;3.75;1.95;;;12.40;99.90;;;;;;5065120;28;20376;-70
2023/07/05 10:55:33;;;;;;;5.05;1.92;;;12.50;99.90;;;;;;5075012;28;20071;-70
2023/07/05 10:58:12;;;;;;;3.40;1.65;;;12.50;99.90;;;;;;5072133;28;20055;-70
2023/07/05 11:00:45;;;;;;;2.50;1.45;;;12.40;99.90;;;;;;5072521;28;20067;-69
2023/07/05 11:03:51;;;;;;;4.75;1.90;;;12.40;99.90;;;;;;5075011;28;20123;-69
2023/07/05 11:06:18;;;;;;;3.38;1.80;;;12.40;99.90;;;;;;5070916;28;20136;-69
2023/07/05 11:08:47;;;;;;;4.75;2.10;;;12.40;99.90;;;;;;5074488;28;20045;-70
2023/07/05 11:11:45;;;;;;;5.10;1.88;;;12.30;99.90;;;;;;5072761;28;20421;-71
2023/07/05 11:14:13;;;;;;;4.47;1.73;;;12.30;99.90;;;;;;5052502;28;20070;-71
2023/07/05 11:16:42;;;;;;;5.03;2.10;;;12.30;99.90;;;;;;5073107;28;20094;-68
2023/07/05 11:19:13;;;;;;;4.25;1.92;;;12.30;99.90;;;;;;5074289;28;20392;-70
2023/07/05 11:21:47;;;;;;;4.93;2.28;;;12.20;99.90;;;;;;5073825;28;20044;-70
2023/07/05 11:24:38;;;;;;;4.15;1.80;;;12.20;99.90;;;;;;5074308;28;20045;-73
2023/07/05 11:27:24;;;;;;;3.95;1.77;;;12.20;99.90;;;;;;5074076;28;20044;-73
2023/07/05 11:29:53;;;;;;;5.63;1.73;;;12.00;99.90;;;;;;5047986;28;20049;-73
2023/07/05 11:32:27;;;;;;;3.22;1.30;;;12.00;99.90;;;;;;5065472;28;20067;-73
2023/07/05 11:34:55;;;;;;;4.20;1.38;;;11.90;99.90;;;;;;5068778;28;20105;-73
2023/07/05 11:37:20;;;;;;;6.57;1.58;;;11.80;99.90;;;;;;5070254;28;20120;-76
2023/07/05 11:39:48;;;;;;;3.83;1.60;;;11.80;99.90;;;;;;5074063;28;20124;-74
2023/07/05 11:42:16;;;;;;;5.18;1.55;;;11.80;99.90;;;;;;5073269;28;20040;-76
2023/07/05 11:45:09;;;;;;;4.32;1.88;;;11.90;99.90;;;;;;5072522;28;20097;-75
2023/07/05 11:47:35;;;;;;;4.65;1.40;;;11.90;99.90;;;;;;5073670;28;20079;-74
2023/07/05 11:50:14;;;;;;;4.22;1.40;;;12.00;99.90;;;;;;5071952;28;20103;-75
2023/07/05 11:52:47;;;;;;;4.00;1.42;;;12.10;99.90;;;;;;5072723;28;20408;-74
2023/07/05 11:55:23;;;;;;;5.70;1.70;;;12.10;99.90;;;;;;5073112;28;20067;-74
2023/07/05 11:58:00;;;;;;;3.58;1.90;;;12.10;99.90;;;;;;5073213;28;20040;-73
2023/07/05 12:00:44;;;;;;;4.43;1.30;;;12.10;99.90;;;;;;5072805;28;20526;-74
2023/07/05 12:03:28;;;;;;;3.90;1.50;;;12.10;99.90;;;;;;5073173;28;20040;-72
2023/07/05 12:06:09;;;;;;;3.08;1.10;;;12.10;99.90;;;;;;5072926;28;20044;-71
2023/07/05 12:09:03;;;;;;;3.08;1.48;;;12.00;99.90;;;;;;5072754;28;20123;-74
2023/07/05 12:11:40;;;;;;;3.92;1.58;;;12.10;99.90;;;;;;5071866;28;20048;-71
2023/07/05 12:14:15;;;;;;;4.57;1.60;;;12.10;99.90;;;;;;5061953;28;20491;-72
2023/07/05 12:16:42;;;;;;;3.10;1.90;;;12.10;99.90;;;;;;5072971;28;20051;-70
2023/07/05 12:19:17;;;;;;;3.88;1.60;;;12.20;99.90;;;;;;5072967;28;20413;-74
2023/07/05 12:21:50;;;;;;;4.53;1.55;;;12.30;99.90;;;;;;5073148;28;20040;-71
2023/07/05 12:24:16;;;;;;;3.80;1.75;;;12.20;99.90;;;;;;5071494;28;20032;-70
2023/07/05 12:26:43;;;;;;;4.22;1.48;;;12.30;99.90;;;;;;5072392;28;20421;-72
2023/07/05 12:29:24;;;;;;;4.15;2.03;;;12.30;99.90;;;;;;5072093;28;20366;-67
2023/07/05 12:32:07;;;;;;;5.47;1.70;;;12.30;99.90;;;;;;5072371;28;20037;-71
2023/07/05 12:34:33;;;;;;;5.30;1.80;;;12.40;99.90;;;;;;5071014;28;20048;-71
2023/07/05 12:37:00;;;;;;;3.92;1.88;;;12.50;99.90;;;;;;5068163;28;20478;-70
2023/07/05 12:39:25;;;;;;;7.53;1.80;;;12.70;99.90;;;;;;5067467;28;20052;-71
2023/07/05 12:41:59;;;;;;;3.20;1.77;;;12.80;99.90;;;;;;5054672;28;20041;-71
2023/07/05 12:44:25;;;;;;;3.47;1.95;;;12.90;99.90;;;;;;5070944;28;20052;-70
2023/07/05 12:46:51;;;;;;;5.90;1.75;;;13.00;99.90;;;;;;5087024;28;20499;-69
2023/07/05 12:49:22;;;;;;;3.97;1.90;;;13.00;99.90;;;;;;5067019;28;20089;-71
2023/07/05 12:51:51;;;;;;;3.83;1.90;;;13.00;99.90;;;;;;5085185;28;20036;-72
2023/07/05 12:54:17;;;;;;;4.78;1.83;;;13.20;99.90;;;;;;5068257;28;20357;-72
2023/07/05 12:56:45;;;;;;;3.63;1.73;;;13.40;99.90;;;;;;5071109;28;20090;-74
2023/07/05 12:59:34;;;;;;;4.93;2.20;;;13.60;99.90;;;;;;5072323;28;20477;-71
2023/07/05 13:02:04;;;;;;;4.82;1.83;;;13.70;99.90;;;;;;5072231;28;20071;-74
2023/07/05 13:04:39;;;;;;;3.70;1.70;;;13.70;99.90;;;;;;5071566;28;20126;-76